Claremont, CA (91711)

5:36 PM PDT on September 21, 2014 (GMT -0700)
Claremont North of Baseline | Change Station
CLOSE
Current Station
Personal Weather Station
Location: Claremont, CA
Elevation: 1531 ft
Nearby Weather Stations

Elev 1531 ft 34.13 °N, 117.71 °W | Updated 6 minutes ago

Clear
Clear
80.0 °F
Feels Like 81 °F
N
0.0
Wind Variable Wind from WNW
Gusts 0.0 mph

Today
High -- | Low -- °F
--% Chance of Precip.
Yesterday
High -- | Low -- °F
Precip. -- in
6:38 AM 6:48 PM
Waning Crescent, 5% visible
Pressure 29.96 in
Visibility 10.0 miles
Clouds Clear
Heat Index 81 °F
Dew Point 61 °F
Humidity 52%
Rainfall 0.00 in
Snow Depth 0 in , 0 in , 0 in
UV 2 out of 12
Pollen 7.20 out of 12
Ozone Good
Flu Activity Not available.
METAR KPOC 212347Z 26008KT 10SM CLR 27/14 A2996

More Conditions Fewer Conditions

Pressure 29.96 in
Visibility 10.0 miles
Clouds Clear
Heat Index 81 °F
Dew Point 61 °F
Humidity 52%
Rainfall 0.00 in
Snow Depth 0 in , 0 in , 0 in
UV 2 out of 12
Pollen 7.20 out of 12
Ozone Good
Flu Activity Not available.
METAR KPOC 212347Z 26008KT 10SM CLR 27/14 A2996

More Conditions Fewer Conditions

10-Day Weather Forecast

Almanac

Astronomy

Sep. 21, 2014 Rise Set
Actual Time 6:38 AM PDT 6:48 PM PDT
Civil Twilight 6:13 AM PDT 7:13 PM PDT
Nautical Twilight 5:44 AM PDT 7:43 PM PDT
Astronomical Twilight 5:14 AM PDT 8:12 PM PDT
Moon 4:21 AM PDT (9/21) 5:23 PM PDT (9/21)
Length of Visible Light 13h 00m
Length of Day
12h 10m
Tomorrow will be 2m 6s shorter.
Waning Crescent, 5% of the Moon is Illuminated
Today
Waning Crescent
Sep 24
New
Oct 1
First Quarter
Oct 8
Full
Oct 15
Last Quarter

Today's Extremes

State Highs State Lows

Community

WunderPhotos

Upload Photos

1,755,316 photos uploaded!

WunderBlogs® & News

Nearby

Air Quality

  Air Quality AQ Index Pollutant
Yesterday Good
OZONE
Current Good
OZONE
Monday Good
PM10
Monday Moderate
OZONE
Monday Good
CO
Monday Good
NO2

Snow Depth

Station Depth Elevation
Tahoe City Cross 0 in 6750 ft
Summit Meadow 0 in 9122 ft
Squaw Valley 0 in 8200 ft
Spratt Creek 0 in 6200 ft
Rubicon #2 1 in 7500 ft

Earthquake Activity

City Distance Mag. Time & Date
Borrego Springs, California 99 miles 2.6 7:34 AM PDT
2014-09-21
Inyokern, California 134 miles 3.1 5:33 PM PDT
2014-09-19
Aguanga, California 69 miles 2.5 1:38 AM PDT
2014-09-19
Corcoran, California 173 miles 2.9 3:59 PM PDT
2014-09-18
Minimum magnitude displayed is 2.5.

Coastal Water Temperatures

Place Temperature
No Stations Reporting

Nearby Weather Stations